Камери на живо
METAR for:LBBG (Burgas Arpt, BU, BU)
Text:LBBG 050930Z 07023KT 9999 FEW044 11/04 Q1021 NOSIG
Temperature: 11.0°C ( 52°F)
Dewpoint: 4.0°C ( 39°F) [RH = 62%]
Pressure (altimeter):30.15 inches Hg (1021.0 mb)
Winds:from the ENE (70 degrees) at 26 MPH (23 knots; 11.8 m/s)
Visibility:6 or more sm (10+ km)
Ceiling:at least 12,000 feet AGL
Clouds: few clouds at 4400 feet AGL

TAF for:LBBG (Burgas Arpt, BU, BU) issued at 0500 UTC 05 Apr 2020
Text:TAF LBBG 050500Z 0506/0606 04018G30KT 9999 SCT040
Forecast period:0600 UTC 05 April 2020 to 0600 UTC 06 April 2020
Forecast type:FROM: standard forecast or significant change
Winds:from the NE (40 degrees) at 21 MPH (18 knots; 9.3 m/s) gusting to 34 MPH (30 knots; 15.4 m/s)
Visibility:6 or more sm (10+ km)
Ceiling:at least 12,000 feet AGL
Clouds: scattered clouds at 4000 feet AGL
Text:TEMPO 0506/0509 RA SCT020 OVC030
Forecast period:0600 to 0900 UTC 05 April 2020
Forecast type:TEMPORARY: The following changes expected for less than half the time period
Ceiling:3000 feet AGL
Clouds: scattered clouds at 2000 feet AGL, overcast cloud deck at 3000 feet AGL
Weather:RA (moderate rain)